Currituck — AEFR — position and weather

sailwx.info

Track history (hours):
 
Tides and Currents Weather Stations Pressure Air Temp Water Temp Dewpoint Dewpoint Depression Visibility Wind Speed Wind Dir Waves Ship Positions

Currituck

Last reported at 2015-Apr-17 13:13 UTC. Time now 2015-May-06 04:25 UTC.
Position N 35°04' W 076°34'.
Warning: this ship's position is 18 days out of date.

Length 45 m; draft 3 m.

Type: Dredging. MMSI: 369970446.

Date/timePositionNaut miles runAvg speedWind from/ knotsBaromVisibWave heightAir tempDewpointWater temp
2015-Apr-17 13:13N 35°04' W 076°34'6 8.8
2015-Apr-17 12:34N 35°01' W 076°40'7 6.6
2015-Apr-17 11:34N 34°54' W 076°41'8 8.3
2015-Apr-17 10:34N 34°46' W 076°41'3 2.6
2015-Apr-17 09:34N 34°43' W 076°42'0 0.0
2015-Apr-17 08:34N 34°43' W 076°42'0 0.0
2015-Apr-17 07:33N 34°43' W 076°42'0 0.0
2015-Apr-17 06:34N 34°43' W 076°42'0 0.0
2015-Apr-17 05:33N 34°43' W 076°42'0 0.0
2015-Apr-17 04:33N 34°43' W 076°42'0 0.0
2015-Apr-17 03:34N 34°43' W 076°42'0 0.0
2015-Apr-17 02:33N 34°43' W 076°42'0 0.0
2015-Apr-17 01:33N 34°43' W 076°42'0 0.0
2015-Apr-17 00:34N 34°43' W 076°42'0 0.0
2015-Apr-16 23:34N 34°43' W 076°42'0 0.0
2015-Apr-16 22:34N 34°43' W 076°42'5 4.8
2015-Apr-16 21:34N 34°43' W 076°48'7 7.1
2015-Apr-16 20:33N 34°43' W 076°57'  
Track history (hours):
 
Tides and Currents Weather Stations Pressure Air Temp Water Temp Dewpoint Dewpoint Depression Visibility Wind Speed Wind Dir Waves Ship Positions

Currituck

Last reported at 2015-Apr-17 13:13 UTC. Time now 2015-May-06 04:25 UTC.
Position N 35°04' W 076°34'.
Warning: this ship's position is 18 days out of date.

Length 45 m; draft 3 m.

Type: Dredging. MMSI: 369970446.

Date/timePositionNaut miles runAvg speedWind from/ knotsBaromVisibWave heightAir tempDewpointWater temp
2015-Apr-17 13:13N 35°04' W 076°34'6 8.8
2015-Apr-17 12:34N 35°01' W 076°40'7 6.6
2015-Apr-17 11:34N 34°54' W 076°41'8 8.3
2015-Apr-17 10:34N 34°46' W 076°41'3 2.6
2015-Apr-17 09:34N 34°43' W 076°42'0 0.0
2015-Apr-17 08:34N 34°43' W 076°42'0 0.0
2015-Apr-17 07:33N 34°43' W 076°42'0 0.0
2015-Apr-17 06:34N 34°43' W 076°42'0 0.0
2015-Apr-17 05:33N 34°43' W 076°42'0 0.0
2015-Apr-17 04:33N 34°43' W 076°42'0 0.0
2015-Apr-17 03:34N 34°43' W 076°42'0 0.0
2015-Apr-17 02:33N 34°43' W 076°42'0 0.0
2015-Apr-17 01:33N 34°43' W 076°42'0 0.0
2015-Apr-17 00:34N 34°43' W 076°42'0 0.0
2015-Apr-16 23:34N 34°43' W 076°42'0 0.0
2015-Apr-16 22:34N 34°43' W 076°42'5 4.8
2015-Apr-16 21:34N 34°43' W 076°48'7 7.1
2015-Apr-16 20:33N 34°43' W 076°57'  

Dump ship's entire track history